Terminal Aerodrome Forecast
Issued by NWS

Home | Current Version | Previous Version | Text Only | Print | Product List | Glossary On
Versions: 1 2 3 4 5 6 7 8 9 10 11 12 13 14 15 16 17
000
FTPQ31 PGUM 232100 AAA
TAFPQ
TAF AMD
PGSN 232110Z 2321/2418 12010KT P6SM VCSH SCT016 SCT040 BKN120=

USA.gov is the U.S. government's official web portal to all federal, state and local government web resources and services.